createdAt,value
2023-01-03T00:03:17.168Z,76.49
2023-01-03T00:08:08.895Z,76.42
2023-01-03T00:13:00.543Z,76.34
2023-01-03T00:17:52.864Z,76.72
2023-01-03T00:22:45.839Z,76.26
2023-01-03T00:27:37.396Z,76.43
2023-01-03T00:32:29.664Z,76.77
2023-01-03T00:37:21.296Z,77.38
2023-01-03T00:42:13.806Z,76.55
2023-01-03T00:47:05.372Z,76.35
2023-01-03T00:51:57.243Z,76.88
2023-01-03T00:56:50.094Z,77.50
2023-01-03T01:01:47.845Z,77.08
2023-01-03T01:06:42.907Z,77.07
2023-01-03T01:11:35.134Z,76.95
2023-01-03T01:16:32.168Z,77.59
2023-01-03T01:21:27.493Z,78.71
2023-01-03T01:26:22.376Z,79.73
2023-01-03T01:31:16.800Z,79.74
2023-01-03T01:36:10.596Z,80.40
2023-01-03T01:41:03.971Z,80.09
2023-01-03T01:45:55.672Z,80.67
2023-01-03T01:50:52.536Z,80.65
2023-01-03T01:55:49.925Z,80.65
2023-01-03T02:00:43.900Z,80.27
2023-01-03T02:05:38.342Z,80.48
2023-01-03T02:10:48.399Z,80.29
2023-01-03T02:15:56.214Z,80.58
2023-01-03T02:20:53.918Z,81.95
2023-01-03T02:26:13.538Z,81.72
2023-01-03T02:31:11.160Z,82.29
2023-01-03T02:36:18.137Z,82.19
2023-01-03T02:41:34.795Z,81.86
2023-01-03T02:46:35.385Z,81.60
2023-01-03T02:52:04.638Z,83.09
2023-01-03T02:57:04.373Z,82.92
2023-01-03T03:01:56.604Z,83.00
2023-01-03T03:07:03.364Z,82.96
2023-01-03T03:12:16.363Z,83.57
2023-01-03T03:17:13.490Z,83.38
2023-01-03T03:22:29.854Z,83.34
2023-01-03T03:27:43.644Z,83.57
2023-01-03T03:32:38.443Z,83.89
2023-01-03T03:37:34.211Z,84.15
2023-01-03T03:42:59.895Z,83.43
2023-01-03T03:47:59.240Z,84.12
2023-01-03T03:52:59.255Z,83.80
2023-01-03T03:57:56.037Z,83.30
2023-01-03T04:02:50.092Z,82.18
2023-01-03T04:07:41.992Z,81.55
2023-01-03T04:12:33.779Z,81.76
2023-01-03T04:17:25.304Z,81.78
2023-01-03T04:22:16.844Z,82.53
2023-01-03T04:27:08.636Z,82.36
2023-01-03T04:32:01.887Z,82.41
2023-01-03T04:36:53.536Z,82.57
2023-01-03T04:41:45.158Z,82.68
2023-01-03T04:46:39.293Z,82.68
2023-01-03T04:51:31.749Z,80.69
2023-01-03T04:56:42.707Z,79.52
2023-01-03T05:01:34.545Z,78.31
2023-01-03T05:06:29.222Z,77.68
2023-01-03T05:11:20.918Z,77.31
2023-01-03T05:16:14.452Z,77.31
2023-01-03T05:21:35.863Z,76.87
2023-01-03T05:26:27.459Z,77.01
2023-01-03T05:31:19.966Z,76.61
2023-01-03T05:36:12.002Z,76.52
2023-01-03T05:41:04.597Z,76.73
2023-01-03T05:45:56.177Z,77.47
2023-01-03T05:50:49.882Z,78.89
2023-01-03T05:55:41.618Z,79.47
2023-01-03T06:00:34.410Z,80.36
2023-01-03T06:05:26.229Z,80.73
2023-01-03T06:10:18.931Z,81.54
2023-01-03T06:15:10.693Z,81.28
2023-01-03T06:20:02.343Z,81.84
2023-01-03T06:24:53.914Z,82.34
2023-01-03T06:29:45.509Z,82.42
2023-01-03T06:34:37.945Z,82.58
2023-01-03T06:39:29.627Z,82.65
2023-01-03T06:44:21.158Z,80.77
2023-01-03T06:49:34.393Z,80.31
2023-01-03T06:54:29.144Z,80.25
2023-01-03T06:59:21.130Z,80.44
2023-01-03T07:04:13.362Z,80.61
2023-01-03T07:09:05.076Z,79.27
2023-01-03T07:13:59.728Z,78.79
2023-01-03T07:18:55.368Z,77.92
2023-01-03T07:23:47.303Z,77.34
2023-01-03T07:28:39.985Z,77.68
2023-01-03T07:33:32.272Z,77.11
2023-01-03T07:38:23.803Z,76.52
2023-01-03T07:43:34.935Z,76.17
2023-01-03T07:48:26.565Z,76.04
2023-01-03T07:53:18.237Z,75.38
2023-01-03T07:58:10.444Z,76.18
2023-01-03T08:03:02.172Z,76.80
2023-01-03T08:07:54.300Z,76.91
2023-01-03T08:13:04.473Z,76.05
2023-01-03T08:17:56.088Z,75.79
2023-01-03T08:22:48.484Z,75.86
2023-01-03T08:27:43.904Z,74.89
2023-01-03T08:32:38.945Z,74.45
2023-01-03T08:37:30.523Z,75.07
2023-01-03T08:42:23.582Z,74.23
2023-01-03T08:47:16.225Z,74.53
2023-01-03T08:52:08.815Z,74.69
2023-01-03T08:57:00.612Z,74.52
2023-01-03T09:01:53.043Z,71.41
2023-01-03T09:06:44.797Z,69.54
2023-01-03T09:11:36.506Z,70.15
2023-01-03T09:16:28.360Z,68.25
2023-01-03T09:21:20.857Z,65.70
2023-01-03T09:26:12.437Z,64.76
2023-01-03T09:31:05.642Z,66.30
2023-01-03T09:35:57.510Z,67.46
2023-01-03T09:41:02.904Z,67.69
2023-01-03T09:45:58.265Z,66.99
2023-01-03T09:51:17.126Z,66.78
2023-01-03T09:56:20.971Z,66.24
2023-01-03T10:01:50.288Z,65.93
2023-01-03T10:06:55.001Z,66.69
2023-01-03T10:11:59.125Z,66.60
2023-01-03T10:17:02.287Z,66.02
2023-01-03T10:22:03.521Z,65.85
2023-01-03T10:27:03.464Z,65.46
2023-01-03T10:32:09.366Z,63.77
2023-01-03T10:37:02.277Z,61.86
2023-01-03T10:41:58.466Z,61.96
2023-01-03T10:46:53.927Z,63.08
2023-01-03T10:52:02.821Z,63.12
2023-01-03T10:56:54.432Z,63.30
2023-01-03T11:02:18.926Z,62.96
2023-01-03T11:07:13.739Z,62.75
2023-01-03T11:12:17.773Z,62.55
2023-01-03T11:17:12.676Z,61.57
2023-01-03T11:22:06.988Z,61.59
2023-01-03T11:27:36.320Z,60.61
2023-01-03T11:33:00.148Z,61.02
2023-01-03T11:38:09.185Z,59.13
2023-01-03T11:43:35.696Z,58.13
2023-01-03T11:48:40.230Z,57.71
2023-01-03T11:53:49.777Z,56.45
2023-01-03T11:59:19.030Z,56.44
2023-01-03T12:04:42.359Z,56.68
2023-01-03T12:09:51.610Z,56.54
2023-01-03T12:14:56.955Z,56.00
2023-01-03T12:19:59.578Z,56.84
2023-01-03T12:25:16.378Z,57.87
2023-01-03T12:30:34.079Z,57.16
2023-01-03T12:35:28.700Z,56.93
2023-01-03T12:40:36.768Z,57.20
2023-01-03T12:45:48.636Z,56.92
2023-01-03T12:50:51.947Z,58.61
2023-01-03T12:55:51.730Z,58.17
2023-01-03T13:01:00.426Z,58.01
2023-01-03T13:06:02.119Z,57.30
2023-01-03T13:10:59.243Z,56.48
2023-01-03T13:15:50.909Z,54.49
2023-01-03T13:20:49.660Z,55.34
2023-01-03T13:25:42.588Z,54.77
2023-01-03T13:30:36.707Z,55.16
2023-01-03T13:35:37.065Z,54.32
2023-01-03T13:40:59.819Z,53.94
2023-01-03T13:45:42.756Z,54.25
2023-01-03T13:50:36.753Z,54.04
2023-01-03T13:55:54.492Z,53.00
2023-01-03T14:00:46.968Z,53.33
2023-01-03T14:05:56.843Z,54.08
2023-01-03T14:11:00.094Z,53.84
2023-01-03T14:16:13.467Z,54.89
2023-01-03T14:21:14.543Z,55.87
2023-01-03T14:26:15.807Z,56.61
2023-01-03T14:31:34.700Z,57.75
2023-01-03T14:36:27.491Z,58.70
2023-01-03T14:41:36.047Z,58.64
2023-01-03T14:46:30.069Z,58.56
2023-01-03T14:51:21.694Z,59.08
2023-01-03T14:56:13.707Z,59.42
2023-01-03T15:01:10.338Z,59.36
2023-01-03T15:06:02.332Z,59.89
2023-01-03T15:11:03.613Z,60.02
2023-01-03T15:16:01.166Z,60.34
2023-01-03T15:20:55.207Z,61.17
2023-01-03T15:25:46.983Z,61.35
2023-01-03T15:30:47.913Z,61.30
2023-01-03T15:35:42.338Z,62.27
2023-01-03T15:40:34.069Z,62.25
2023-01-03T15:45:28.679Z,62.61
2023-01-03T15:50:20.696Z,63.47
2023-01-03T15:55:13.907Z,64.11
2023-01-03T16:00:09.072Z,64.60
2023-01-03T16:05:00.887Z,65.07
2023-01-03T16:09:52.529Z,65.15
2023-01-03T16:14:48.567Z,65.43
2023-01-03T16:19:40.385Z,65.72
2023-01-03T16:24:34.910Z,66.09
2023-01-03T16:29:27.854Z,66.24
2023-01-03T16:34:26.385Z,66.32
2023-01-03T16:39:26.917Z,65.80
2023-01-03T16:44:18.479Z,66.59
2023-01-03T16:49:11.082Z,66.27
2023-01-03T16:54:07.464Z,65.90
2023-01-03T16:58:59.063Z,65.47
2023-01-03T17:03:50.795Z,65.76
2023-01-03T17:08:42.798Z,65.80
2023-01-03T17:13:40.962Z,66.34
2023-01-03T17:18:37.296Z,67.15
2023-01-03T17:23:32.296Z,66.55
2023-01-03T17:28:24.157Z,66.53
2023-01-03T17:33:15.741Z,66.64
2023-01-03T17:38:25.575Z,67.15
2023-01-03T17:43:23.752Z,67.52
2023-01-03T17:48:35.095Z,67.77
2023-01-03T17:53:26.981Z,67.67
2023-01-03T17:58:36.245Z,67.89
2023-01-03T18:03:29.037Z,68.13
2023-01-03T18:08:22.804Z,67.88
2023-01-03T18:13:26.962Z,67.54
2023-01-03T18:18:20.617Z,67.96
2023-01-03T18:23:38.192Z,67.19
2023-01-03T18:28:30.140Z,67.25
2023-01-03T18:33:22.559Z,67.37
2023-01-03T18:38:24.946Z,67.50
2023-01-03T18:43:19.153Z,67.73
2023-01-03T18:48:17.124Z,67.58
2023-01-03T18:53:15.775Z,68.32
2023-01-03T18:58:16.978Z,68.80
2023-01-03T19:03:22.217Z,69.08
2023-01-03T19:08:16.634Z,69.07
2023-01-03T19:13:21.374Z,68.58
2023-01-03T19:18:12.954Z,69.08
2023-01-03T19:23:06.332Z,69.32
2023-01-03T19:28:01.749Z,68.98
2023-01-03T19:32:56.153Z,69.26
2023-01-03T19:37:47.787Z,69.27
2023-01-03T19:42:48.062Z,68.83
2023-01-03T19:47:39.747Z,68.91
2023-01-03T19:52:31.297Z,69.59
2023-01-03T19:57:30.153Z,69.83
2023-01-03T20:02:36.282Z,69.14
2023-01-03T20:07:28.208Z,70.09
2023-01-03T20:12:26.072Z,70.43
2023-01-03T20:17:21.283Z,70.68
2023-01-03T20:22:37.277Z,71.51
2023-01-03T20:27:24.908Z,70.68
2023-01-03T20:32:16.515Z,70.54
2023-01-03T20:37:17.044Z,70.68
2023-01-03T20:42:24.734Z,70.92
2023-01-03T20:47:25.019Z,71.84
2023-01-03T20:52:17.702Z,72.50
2023-01-03T20:57:21.335Z,73.15
2023-01-03T21:02:13.160Z,72.92
2023-01-03T21:07:11.438Z,73.36
2023-01-03T21:12:03.649Z,73.51
2023-01-03T21:16:55.240Z,73.33
2023-01-03T21:21:49.165Z,73.13
2023-01-03T21:26:42.158Z,73.26
2023-01-03T21:31:35.538Z,73.08
2023-01-03T21:36:32.785Z,72.77
2023-01-03T21:41:28.272Z,72.63
2023-01-03T21:46:21.091Z,73.11
2023-01-03T21:51:14.209Z,72.57
2023-01-03T21:56:12.038Z,72.28
2023-01-03T22:01:16.282Z,72.44
2023-01-03T22:06:10.855Z,71.28
2023-01-03T22:11:03.318Z,71.20
2023-01-03T22:15:55.507Z,71.13
2023-01-03T22:20:47.270Z,71.67
2023-01-03T22:25:38.894Z,71.71
2023-01-03T22:30:30.520Z,71.91
2023-01-03T22:35:22.474Z,71.89
2023-01-03T22:40:17.681Z,71.12
2023-01-03T22:45:10.461Z,71.14
2023-01-03T22:50:07.590Z,71.37
2023-01-03T22:54:59.245Z,71.39
2023-01-03T22:59:50.960Z,70.81
2023-01-03T23:04:42.695Z,71.46
2023-01-03T23:09:34.341Z,71.37
2023-01-03T23:14:27.225Z,70.90
2023-01-03T23:19:21.625Z,71.56
2023-01-03T23:24:15.755Z,70.99
2023-01-03T23:29:09.158Z,70.31
2023-01-03T23:34:00.836Z,70.14
2023-01-03T23:38:54.116Z,69.22
2023-01-03T23:43:46.181Z,68.77
2023-01-03T23:48:37.888Z,68.68
2023-01-03T23:53:29.700Z,68.53
2023-01-03T23:58:22.203Z,67.72
